createdAt,value
2022-11-16T00:02:21.502Z,18.27
2022-11-16T00:05:27.965Z,24.05
2022-11-16T00:08:31.048Z,18.08
2022-11-16T00:11:33.464Z,23.70
2022-11-16T00:14:36.060Z,19.33
2022-11-16T00:17:37.723Z,22.92
2022-11-16T00:20:39.495Z,20.10
2022-11-16T00:23:41.120Z,17.58
2022-11-16T00:26:42.865Z,16.15
2022-11-16T00:29:44.488Z,16.40
2022-11-16T00:32:46.708Z,19.73
2022-11-16T00:35:48.347Z,20.73
2022-11-16T00:38:52.124Z,22.60
2022-11-16T00:41:54.291Z,19.08
2022-11-16T00:44:56.228Z,18.50
2022-11-16T00:48:00.465Z,15.73
2022-11-16T00:51:03.262Z,21.52
2022-11-16T00:54:05.823Z,23.75
2022-11-16T00:57:10.075Z,20.42
2022-11-16T01:00:12.236Z,19.38
2022-11-16T01:03:13.917Z,22.35
2022-11-16T01:06:16.707Z,21.20
2022-11-16T01:09:18.524Z,25.90
2022-11-16T01:12:22.509Z,27.80
2022-11-16T01:15:25.351Z,19.80
2022-11-16T01:18:27.240Z,21.45
2022-11-16T01:21:28.825Z,26.55
2022-11-16T01:24:30.855Z,17.35
2022-11-16T01:27:33.171Z,23.80
2022-11-16T01:30:37.528Z,22.40
2022-11-16T01:33:43.484Z,23.85
2022-11-16T01:37:03.362Z,17.98
2022-11-16T01:40:08.160Z,21.35
2022-11-16T01:43:18.516Z,21.65
2022-11-16T01:46:21.429Z,23.25
2022-11-16T01:49:25.608Z,17.10
2022-11-16T01:52:32.670Z,23.00
2022-11-16T01:55:35.710Z,20.40
2022-11-16T01:58:47.306Z,20.73
2022-11-16T02:01:55.484Z,16.00
2022-11-16T02:05:00.594Z,20.75
2022-11-16T02:09:03.783Z,20.15
2022-11-16T02:15:27.256Z,17.25
2022-11-16T02:19:11.661Z,15.35
2022-11-16T02:22:31.142Z,19.25
2022-11-16T02:26:11.598Z,16.75
2022-11-16T02:29:22.366Z,19.80
2022-11-16T02:32:32.122Z,14.48
2022-11-16T02:35:38.379Z,16.35
2022-11-16T02:38:49.989Z,14.63
2022-11-16T02:41:53.454Z,15.10
2022-11-16T02:44:55.613Z,21.15
2022-11-16T02:48:00.221Z,19.92
2022-11-16T02:51:03.011Z,14.35
2022-11-16T02:54:09.170Z,13.85
2022-11-16T02:57:28.152Z,20.00
2022-11-16T03:00:32.456Z,18.17
2022-11-16T03:03:38.115Z,12.38
2022-11-16T03:06:43.747Z,14.32
2022-11-16T03:09:47.079Z,18.65
2022-11-16T03:12:49.830Z,13.00
2022-11-16T03:15:53.108Z,19.15
2022-11-16T03:18:56.511Z,17.92
2022-11-16T03:22:00.715Z,18.13
2022-11-16T03:25:03.406Z,17.80
2022-11-16T03:28:07.956Z,12.77
2022-11-16T03:31:16.525Z,17.23
2022-11-16T03:34:20.577Z,18.00
2022-11-16T03:37:23.509Z,12.93
2022-11-16T03:40:26.852Z,13.65
2022-11-16T03:43:28.708Z,14.50
2022-11-16T03:46:30.477Z,13.52
2022-11-16T03:49:32.344Z,12.80
2022-11-16T03:52:35.019Z,16.20
2022-11-16T03:55:37.922Z,14.50
2022-11-16T03:58:39.952Z,14.95
2022-11-16T04:01:44.725Z,16.23
2022-11-16T04:05:07.489Z,13.90
2022-11-16T04:08:33.024Z,12.98
2022-11-16T04:11:54.316Z,14.07
2022-11-16T04:15:15.743Z,18.02
2022-11-16T04:18:36.543Z,18.38
2022-11-16T04:21:59.509Z,19.58
2022-11-16T04:25:10.360Z,15.93
2022-11-16T04:28:16.204Z,19.23
2022-11-16T04:31:42.182Z,16.42
2022-11-16T04:35:05.262Z,15.07
2022-11-16T04:38:06.866Z,19.27
2022-11-16T04:41:30.668Z,20.67
2022-11-16T04:44:55.085Z,23.10
2022-11-16T04:48:00.008Z,16.67
2022-11-16T04:51:05.483Z,17.55
2022-11-16T04:54:08.196Z,26.55
2022-11-16T04:57:10.098Z,18.65
2022-11-16T05:00:12.575Z,11.00
2022-11-16T05:03:14.924Z,19.17
2022-11-16T05:06:17.323Z,20.80
2022-11-16T05:09:19.809Z,18.10
2022-11-16T05:12:26.021Z,18.73
2022-11-16T05:15:31.547Z,22.02
2022-11-16T05:18:34.850Z,14.60
2022-11-16T05:21:38.025Z,11.98
2022-11-16T05:24:40.481Z,15.02
2022-11-16T05:27:42.174Z,22.23
2022-11-16T05:30:45.405Z,12.48
2022-11-16T05:33:49.399Z,14.82
2022-11-16T05:36:52.681Z,13.43
2022-11-16T05:39:54.926Z,16.63
2022-11-16T05:46:05.545Z,10.55
2022-11-16T05:49:07.987Z,10.50
2022-11-16T05:52:10.805Z,10.15
2022-11-16T05:55:14.013Z,9.02
2022-11-16T05:58:18.374Z,9.90
2022-11-16T06:01:20.050Z,9.98
2022-11-16T06:04:24.838Z,17.52
2022-11-16T06:07:29.046Z,18.23
2022-11-16T06:10:30.808Z,17.52
2022-11-16T06:13:33.109Z,11.80
2022-11-16T06:16:36.034Z,11.90
2022-11-16T06:19:42.008Z,18.53
2022-11-16T06:22:43.708Z,16.63
2022-11-16T06:25:46.423Z,11.57
2022-11-16T06:28:48.352Z,17.38
2022-11-16T06:31:49.956Z,12.75
2022-11-16T06:34:51.610Z,16.25
2022-11-16T06:37:53.464Z,14.43
2022-11-16T06:40:57.056Z,16.35
2022-11-16T06:44:01.221Z,15.98
2022-11-16T06:47:08.149Z,16.13
2022-11-16T06:50:10.604Z,24.92
2022-11-16T06:53:13.245Z,12.80
2022-11-16T06:56:16.250Z,14.30
2022-11-16T06:59:23.447Z,17.67
2022-11-16T07:02:26.442Z,13.50
2022-11-16T07:05:28.556Z,10.63
2022-11-16T07:08:30.476Z,17.27
2022-11-16T07:11:32.388Z,12.52
2022-11-16T07:14:34.324Z,16.00
2022-11-16T07:17:38.019Z,13.48
2022-11-16T07:20:39.736Z,11.27
2022-11-16T07:23:41.592Z,12.23
2022-11-16T07:26:45.441Z,10.10
2022-11-16T07:29:51.700Z,10.60
2022-11-16T07:33:18.121Z,10.32
2022-11-16T07:36:55.180Z,15.38
2022-11-16T07:39:57.035Z,13.77
2022-11-16T07:42:59.708Z,9.43
2022-11-16T07:49:38.331Z,13.02
2022-11-16T07:52:47.450Z,16.70
2022-11-16T07:55:54.822Z,12.90
2022-11-16T07:58:59.101Z,15.20
2022-11-16T08:02:00.893Z,13.48
2022-11-16T08:05:02.902Z,18.88
2022-11-16T08:08:04.731Z,11.43
2022-11-16T08:11:10.254Z,14.77
2022-11-16T08:14:12.668Z,14.75
2022-11-16T08:17:14.402Z,13.55
2022-11-16T08:20:16.774Z,21.25
2022-11-16T08:23:18.569Z,13.07
2022-11-16T08:26:22.139Z,17.10
2022-11-16T08:29:31.627Z,11.68
2022-11-16T08:32:33.479Z,14.68
2022-11-16T08:35:35.981Z,15.00
2022-11-16T08:38:37.677Z,16.70
2022-11-16T08:41:42.127Z,12.82
2022-11-16T08:44:44.883Z,12.40
2022-11-16T08:47:49.324Z,14.05
2022-11-16T08:51:15.966Z,11.00
2022-11-16T08:54:14.371Z,12.20
2022-11-16T08:57:17.568Z,11.63
2022-11-16T09:00:22.296Z,10.68
2022-11-16T09:03:23.918Z,11.68
2022-11-16T09:06:26.222Z,12.88
2022-11-16T09:09:27.910Z,10.23
2022-11-16T09:12:29.549Z,13.15
2022-11-16T09:15:31.822Z,9.93
2022-11-16T09:18:34.071Z,14.85
2022-11-16T09:21:37.565Z,17.45
2022-11-16T09:24:39.244Z,21.75
2022-11-16T09:27:41.043Z,8.88
2022-11-16T09:30:43.571Z,6.45
2022-11-16T09:33:47.735Z,14.23
2022-11-16T09:36:49.333Z,12.82
2022-11-16T09:39:50.951Z,14.45
2022-11-16T09:42:59.118Z,12.20
2022-11-16T09:46:00.644Z,15.18
2022-11-16T09:49:10.522Z,17.13
2022-11-16T09:52:38.931Z,6.32
2022-11-16T09:55:47.527Z,2.53
2022-11-16T09:59:07.726Z,12.95
2022-11-16T10:02:28.208Z,5.97
2022-11-16T10:05:32.861Z,8.98
2022-11-16T10:08:34.820Z,8.50
2022-11-16T10:11:45.715Z,9.60
2022-11-16T10:14:50.076Z,9.43
2022-11-16T10:18:09.070Z,10.55
2022-11-16T10:21:13.492Z,10.98
2022-11-16T10:24:34.249Z,16.83
2022-11-16T10:27:49.133Z,10.95
2022-11-16T10:31:09.339Z,11.68
2022-11-16T10:34:16.342Z,9.02
2022-11-16T10:37:18.230Z,7.18
2022-11-16T10:40:39.197Z,10.38
2022-11-16T10:43:42.259Z,7.72
2022-11-16T10:46:45.960Z,11.63
2022-11-16T10:49:57.090Z,12.88
2022-11-16T10:52:59.629Z,5.05
2022-11-16T10:56:17.536Z,9.68
2022-11-16T10:59:19.973Z,6.90
2022-11-16T11:02:24.631Z,11.55
2022-11-16T11:05:26.993Z,13.07
2022-11-16T11:08:32.971Z,11.05
2022-11-16T11:11:53.092Z,5.22
2022-11-16T11:15:06.337Z,2.78
2022-11-16T11:18:11.745Z,8.23
2022-11-16T11:21:21.112Z,6.90
2022-11-16T11:24:44.379Z,4.82
2022-11-16T11:27:44.772Z,2.47
2022-11-16T11:30:53.885Z,8.05
2022-11-16T11:33:56.747Z,5.03
2022-11-16T11:37:00.776Z,7.80
2022-11-16T11:40:05.432Z,3.15
2022-11-16T11:43:21.033Z,11.65
2022-11-16T11:46:42.235Z,3.45
2022-11-16T11:49:52.248Z,4.65
2022-11-16T11:53:05.668Z,8.48
2022-11-16T11:56:09.818Z,8.50
2022-11-16T11:59:15.871Z,9.60
2022-11-16T12:02:36.420Z,5.05
2022-11-16T12:05:45.693Z,0.95
2022-11-16T12:08:53.291Z,4.00
2022-11-16T12:12:16.131Z,9.30
2022-11-16T12:15:36.037Z,3.38
2022-11-16T12:18:50.941Z,9.93
2022-11-16T12:22:10.805Z,6.22
2022-11-16T12:25:35.644Z,1.98
2022-11-16T12:28:51.620Z,4.15
2022-11-16T12:32:04.034Z,1.25
2022-11-16T12:35:05.637Z,1.52
2022-11-16T12:38:24.828Z,7.03
2022-11-16T12:41:43.929Z,11.23
2022-11-16T12:44:45.459Z,2.67
2022-11-16T12:47:56.131Z,10.90
2022-11-16T12:51:03.712Z,6.40
2022-11-16T12:54:05.489Z,7.90
2022-11-16T12:57:07.075Z,3.15
2022-11-16T13:00:10.387Z,11.07
2022-11-16T13:03:14.775Z,1.77
2022-11-16T13:06:18.894Z,2.40
2022-11-16T13:09:23.859Z,8.77
2022-11-16T13:12:26.550Z,6.45
2022-11-16T13:15:33.717Z,1.15
2022-11-16T13:18:37.619Z,5.20
2022-11-16T13:21:48.330Z,12.52
2022-11-16T13:25:14.671Z,1.75
2022-11-16T13:28:23.231Z,7.10
2022-11-16T13:31:34.154Z,4.80
2022-11-16T13:34:37.730Z,2.70
2022-11-16T13:37:39.423Z,8.38
2022-11-16T13:40:41.241Z,9.38
2022-11-16T13:43:48.033Z,10.65
2022-11-16T13:47:06.300Z,8.63
2022-11-16T13:50:16.910Z,6.03
2022-11-16T13:57:00.700Z,5.50
2022-11-16T14:00:02.257Z,5.60
2022-11-16T14:03:17.939Z,7.20
2022-11-16T14:06:19.455Z,5.80
2022-11-16T14:09:39.728Z,4.45
2022-11-16T14:12:41.278Z,1.48
2022-11-16T14:15:42.953Z,3.67
2022-11-16T14:18:45.292Z,5.40
2022-11-16T14:21:57.789Z,2.80
2022-11-16T14:25:05.839Z,8.98
2022-11-16T14:28:12.374Z,6.00
2022-11-16T14:34:17.139Z,5.78
2022-11-16T14:37:21.657Z,8.75
2022-11-16T14:40:23.320Z,0.63
2022-11-16T14:43:28.114Z,10.70
2022-11-16T14:46:34.660Z,9.23
2022-11-16T14:49:37.508Z,3.65
2022-11-16T14:52:47.837Z,10.15
2022-11-16T14:55:49.458Z,10.13
2022-11-16T14:58:52.045Z,6.40
2022-11-16T15:01:53.729Z,5.93
2022-11-16T15:04:55.379Z,5.97
2022-11-16T15:07:58.990Z,9.32
2022-11-16T15:11:00.968Z,6.75
2022-11-16T15:14:02.646Z,9.63
2022-11-16T15:17:07.263Z,7.13
2022-11-16T15:20:22.833Z,4.82
2022-11-16T15:23:29.407Z,8.52
2022-11-16T15:26:32.366Z,3.90
2022-11-16T15:29:34.033Z,6.20
2022-11-16T15:32:38.330Z,11.80
2022-11-16T15:35:40.114Z,7.38
2022-11-16T15:38:41.959Z,6.93
2022-11-16T15:41:43.680Z,5.28
2022-11-16T15:44:45.462Z,5.15
2022-11-16T15:47:47.412Z,6.88
2022-11-16T15:50:57.872Z,4.03
2022-11-16T15:54:20.426Z,5.70
2022-11-16T15:57:23.292Z,3.45
2022-11-16T16:00:25.572Z,6.57
2022-11-16T16:03:28.604Z,3.13
2022-11-16T16:06:48.895Z,5.32
2022-11-16T16:10:10.508Z,4.45
2022-11-16T16:13:23.131Z,6.82
2022-11-16T16:16:24.802Z,7.63
2022-11-16T16:19:42.915Z,3.78
2022-11-16T16:22:44.958Z,5.50
2022-11-16T16:25:50.500Z,8.13
2022-11-16T16:28:52.283Z,6.82
2022-11-16T16:31:54.373Z,6.75
2022-11-16T16:34:57.177Z,6.88
2022-11-16T16:38:00.898Z,5.22
2022-11-16T16:41:04.344Z,4.65
2022-11-16T16:44:11.174Z,8.15
2022-11-16T16:47:13.504Z,7.07
2022-11-16T16:50:15.392Z,5.75
2022-11-16T16:53:17.397Z,5.57
2022-11-16T16:56:19.915Z,19.50
2022-11-16T16:59:21.594Z,7.43
2022-11-16T17:02:25.501Z,5.80
2022-11-16T17:05:27.207Z,7.25
2022-11-16T17:08:35.831Z,6.75
2022-11-16T17:11:37.502Z,7.10
2022-11-16T17:14:39.113Z,6.03
2022-11-16T17:17:42.869Z,6.00
2022-11-16T17:20:45.571Z,5.75
2022-11-16T17:23:47.269Z,6.13
2022-11-16T17:26:49.095Z,6.53
2022-11-16T17:29:50.893Z,8.32
2022-11-16T17:32:52.457Z,6.63
2022-11-16T17:35:54.948Z,6.25
2022-11-16T17:38:56.590Z,6.47
2022-11-16T17:41:58.237Z,12.68
2022-11-16T17:44:59.779Z,5.45
2022-11-16T17:48:01.453Z,10.13
2022-11-16T17:51:03.309Z,8.40
2022-11-16T17:54:05.097Z,5.90
2022-11-16T17:57:06.680Z,7.43
2022-11-16T18:00:09.108Z,9.80
2022-11-16T18:03:10.742Z,8.13
2022-11-16T18:06:13.890Z,8.55
2022-11-16T18:09:15.428Z,6.70
2022-11-16T18:12:17.035Z,11.88
2022-11-16T18:15:39.249Z,10.02
2022-11-16T18:18:40.714Z,7.55
2022-11-16T18:21:42.742Z,11.73
2022-11-16T18:24:44.600Z,15.93
2022-11-16T18:27:49.679Z,15.52
2022-11-16T18:30:51.715Z,7.78
2022-11-16T18:33:53.351Z,8.45
2022-11-16T18:36:55.352Z,7.25
2022-11-16T18:39:56.924Z,7.95
2022-11-16T18:42:58.567Z,11.02
2022-11-16T18:46:00.420Z,10.38
2022-11-16T18:49:02.059Z,6.07
2022-11-16T18:52:03.695Z,4.57
2022-11-16T18:55:05.535Z,10.82
2022-11-16T18:58:22.739Z,11.88
2022-11-16T19:01:29.148Z,10.93
2022-11-16T19:04:30.769Z,8.77
2022-11-16T19:07:32.409Z,9.68
2022-11-16T19:10:38.010Z,7.65
2022-11-16T19:13:40.290Z,9.70
2022-11-16T19:16:51.324Z,10.38
2022-11-16T19:19:57.336Z,8.68
2022-11-16T19:22:59.341Z,7.50
2022-11-16T19:26:02.126Z,8.57
2022-11-16T19:29:04.339Z,9.55
2022-11-16T19:32:05.929Z,8.45
2022-11-16T19:35:10.767Z,10.45
2022-11-16T19:38:12.442Z,10.35
2022-11-16T19:41:14.739Z,10.40
2022-11-16T19:44:16.321Z,8.70
2022-11-16T19:47:18.824Z,6.38
2022-11-16T19:50:21.153Z,8.65
2022-11-16T19:53:22.791Z,10.05
2022-11-16T19:56:24.712Z,6.93
2022-11-16T19:59:26.273Z,6.13
2022-11-16T20:02:27.905Z,7.68
2022-11-16T20:05:30.597Z,8.35
2022-11-16T20:08:32.325Z,15.25
2022-11-16T20:11:34.509Z,11.05
2022-11-16T20:14:36.135Z,6.60
2022-11-16T20:17:37.700Z,10.48
2022-11-16T20:20:39.362Z,11.52
2022-11-16T20:23:40.988Z,7.97
2022-11-16T20:26:46.663Z,7.40
2022-11-16T20:29:48.237Z,7.43
2022-11-16T20:32:49.888Z,5.45
2022-11-16T20:35:51.456Z,8.68
2022-11-16T20:38:53.339Z,10.63
2022-11-16T20:41:54.902Z,5.40
2022-11-16T20:44:56.560Z,8.73
2022-11-16T20:47:58.892Z,8.05
2022-11-16T20:51:00.602Z,11.82
2022-11-16T20:54:02.290Z,23.27
2022-11-16T20:57:04.696Z,44.72
2022-11-16T21:00:06.465Z,14.10
2022-11-16T21:03:08.256Z,11.40
2022-11-16T21:06:10.236Z,4.45
2022-11-16T21:09:12.598Z,26.85
2022-11-16T21:12:32.572Z,11.35
2022-11-16T21:15:34.251Z,6.00
2022-11-16T21:18:35.872Z,9.45
2022-11-16T21:21:38.630Z,10.27
2022-11-16T21:24:40.154Z,10.82
2022-11-16T21:27:41.755Z,13.40
2022-11-16T21:30:53.810Z,8.68
2022-11-16T21:33:55.980Z,1.42
2022-11-16T21:36:57.522Z,8.90
2022-11-16T21:39:59.133Z,15.38
2022-11-16T21:43:00.676Z,48.15
2022-11-16T21:46:03.630Z,24.08
2022-11-16T21:49:05.248Z,17.30
2022-11-16T21:52:06.884Z,5.80
2022-11-16T21:55:08.564Z,6.32
2022-11-16T21:58:10.243Z,6.22
2022-11-16T22:01:12.593Z,13.60
2022-11-16T22:04:32.975Z,9.60
2022-11-16T22:07:36.711Z,9.13
2022-11-16T22:10:38.508Z,9.65
2022-11-16T22:13:40.346Z,8.50
2022-11-16T22:16:41.982Z,7.53
2022-11-16T22:19:43.610Z,7.43
2022-11-16T22:22:45.316Z,6.35
2022-11-16T22:25:46.965Z,6.57
2022-11-16T22:28:48.688Z,11.05
2022-11-16T22:31:50.258Z,6.68
2022-11-16T22:34:52.082Z,4.85
2022-11-16T22:37:53.781Z,5.72
2022-11-16T22:40:56.156Z,6.28
2022-11-16T22:43:57.656Z,4.55
2022-11-16T22:46:59.356Z,3.85
2022-11-16T22:50:01.197Z,5.63
2022-11-16T22:53:02.801Z,4.00
2022-11-16T22:56:05.351Z,6.50
2022-11-16T22:59:07.068Z,3.45
2022-11-16T23:02:08.724Z,5.43
2022-11-16T23:05:10.393Z,3.20
2022-11-16T23:08:12.086Z,3.72
2022-11-16T23:11:36.413Z,5.18
2022-11-16T23:14:56.623Z,4.68
2022-11-16T23:17:58.265Z,5.50
2022-11-16T23:21:18.378Z,4.68
2022-11-16T23:24:38.354Z,3.60
2022-11-16T23:27:39.911Z,4.10
2022-11-16T23:30:41.616Z,3.45
2022-11-16T23:33:46.126Z,2.88
2022-11-16T23:36:47.692Z,3.13
2022-11-16T23:39:49.386Z,3.75
2022-11-16T23:43:10.477Z,5.88
2022-11-16T23:46:12.103Z,4.07
2022-11-16T23:49:18.517Z,4.72
2022-11-16T23:52:20.227Z,2.55
2022-11-16T23:55:23.116Z,8.85
2022-11-16T23:58:24.831Z,4.13
